createdAt,value
2022-11-05T12:09:06.744Z,14.81
2022-11-05T12:11:45.207Z,14.77
2022-11-05T12:14:24.153Z,14.80
2022-11-05T12:17:19.924Z,14.80
2022-11-05T13:21:38.806Z,14.68
2022-11-05T13:24:10.247Z,14.70
2022-11-05T13:26:43.926Z,14.70
2022-11-05T13:30:00.376Z,14.69
2022-11-05T13:32:39.074Z,14.72
2022-11-05T13:35:13.713Z,14.71
2022-11-05T13:38:01.338Z,14.70
2022-11-05T13:40:37.073Z,14.69
2022-11-05T13:43:21.910Z,14.74
2022-11-05T13:46:07.300Z,14.77
2022-11-05T13:48:52.633Z,14.80
2022-11-05T13:51:34.787Z,14.79
2022-11-05T13:54:37.268Z,14.79
2022-11-05T13:57:07.143Z,14.79
2022-11-05T13:59:42.961Z,14.79
2022-11-05T14:02:23.058Z,14.84
2022-11-05T14:04:59.647Z,14.81
2022-11-05T14:07:33.842Z,14.89
2022-11-05T14:10:28.454Z,14.85
2022-11-05T14:12:56.159Z,14.82
2022-11-05T14:15:26.426Z,14.82
2022-11-05T14:18:03.676Z,14.83
2022-11-05T14:20:30.429Z,14.81
2022-11-05T14:23:24.942Z,14.81
2022-11-05T14:26:00.741Z,14.83
2022-11-05T14:28:40.662Z,14.81
2022-11-05T14:32:07.764Z,14.82
2022-11-05T14:34:45.510Z,14.85
2022-11-05T14:37:12.703Z,14.86
2022-11-05T14:39:40.591Z,14.88
2022-11-05T14:42:14.823Z,14.87
2022-11-05T14:45:00.232Z,14.91
2022-11-05T14:47:30.469Z,14.90
2022-11-05T14:50:09.009Z,14.88
2022-11-05T14:52:36.343Z,14.89
2022-11-05T14:55:03.506Z,14.87
2022-11-05T14:57:42.619Z,14.89
2022-11-05T15:00:28.368Z,14.90
2022-11-05T15:03:45.532Z,14.95
2022-11-05T15:06:16.415Z,14.93
2022-11-05T15:08:49.477Z,14.97
2022-11-05T15:11:24.046Z,14.96
2022-11-05T15:13:53.822Z,14.93
2022-11-05T15:16:30.390Z,14.92
2022-11-05T15:18:57.940Z,14.92
2022-11-05T15:21:25.372Z,14.95
2022-11-05T15:23:56.653Z,14.98
2022-11-05T15:26:35.704Z,14.96
2022-11-05T15:29:02.634Z,14.95
2022-11-05T15:31:36.357Z,15.01
2022-11-05T15:34:20.166Z,14.99
2022-11-05T15:36:52.741Z,15.00
2022-11-05T15:39:43.506Z,14.99
2022-11-05T15:42:15.902Z,15.01
2022-11-05T15:44:47.600Z,15.03
2022-11-05T15:47:17.641Z,15.02
2022-11-05T15:49:46.945Z,15.05
2022-11-05T15:52:15.942Z,15.04
2022-11-05T15:54:43.260Z,15.03
2022-11-05T15:57:28.628Z,15.01
2022-11-05T15:59:55.583Z,15.01
2022-11-05T16:02:32.393Z,15.04
2022-11-05T16:05:00.466Z,14.99
2022-11-05T16:07:28.111Z,15.00
2022-11-05T16:09:56.560Z,15.04
2022-11-05T16:12:33.146Z,15.02
2022-11-05T16:15:10.432Z,15.03
2022-11-05T16:17:40.199Z,15.03
2022-11-05T16:20:32.335Z,15.09
2022-11-05T16:23:01.618Z,15.06
2022-11-05T16:25:41.530Z,15.04
2022-11-05T16:28:23.369Z,15.02
2022-11-05T16:30:57.926Z,15.03
2022-11-05T16:37:22.690Z,15.05
2022-11-05T16:39:49.771Z,15.02
2022-11-05T16:42:37.259Z,15.05
2022-11-05T16:45:04.779Z,15.07
2022-11-05T16:47:31.713Z,15.04
2022-11-05T16:49:58.601Z,15.08
2022-11-05T16:52:25.607Z,15.09
2022-11-05T16:54:52.478Z,15.08
2022-11-05T16:57:30.239Z,15.16
2022-11-05T16:59:59.288Z,15.08
2022-11-05T17:02:26.868Z,15.13
2022-11-05T17:04:53.934Z,15.11
2022-11-05T17:07:20.771Z,15.13
2022-11-05T17:09:47.653Z,15.09
2022-11-05T17:12:14.957Z,15.15
2022-11-05T17:14:41.987Z,15.15
2022-11-05T17:17:08.820Z,15.14
2022-11-05T18:18:08.559Z,14.96
2022-11-05T18:20:35.426Z,14.96
2022-11-05T18:23:02.383Z,14.97
2022-11-05T18:25:29.283Z,14.97
2022-11-05T18:27:56.277Z,14.98
2022-11-05T20:55:05.831Z,14.96
2022-11-05T20:57:32.785Z,14.94
2022-11-05T20:59:59.593Z,14.96
2022-11-05T21:02:26.662Z,14.96
2022-11-05T21:04:53.586Z,14.99
2022-11-05T21:07:20.500Z,15.00
2022-11-05T21:09:47.329Z,15.02
2022-11-05T21:12:14.302Z,15.04
2022-11-05T21:14:43.139Z,15.05
2022-11-05T21:17:11.843Z,15.07
2022-11-05T21:19:38.807Z,15.08
2022-11-05T21:22:06.716Z,15.10
2022-11-05T21:24:34.023Z,15.11
2022-11-05T21:27:01.440Z,15.10
2022-11-05T21:29:28.309Z,15.10
2022-11-05T21:31:55.173Z,15.12
2022-11-05T21:34:21.998Z,15.13
2022-11-05T21:36:50.478Z,15.12
2022-11-05T21:39:17.907Z,15.12
2022-11-05T21:41:44.839Z,15.13
2022-11-05T21:44:11.901Z,15.13
2022-11-05T21:46:38.769Z,15.16
2022-11-05T21:49:05.689Z,15.14
2022-11-05T21:51:50.963Z,15.16
2022-11-05T21:54:36.413Z,15.17
2022-11-05T21:57:22.055Z,15.16
2022-11-05T21:59:49.311Z,15.16
2022-11-05T22:02:21.831Z,15.17
2022-11-05T22:04:53.624Z,15.16
2022-11-05T22:07:23.203Z,15.18
2022-11-05T22:09:50.276Z,15.18
2022-11-05T22:12:17.248Z,15.17
2022-11-05T22:14:44.359Z,15.18
2022-11-05T22:17:12.293Z,15.19
2022-11-05T22:19:39.091Z,15.19
2022-11-05T22:22:06.732Z,15.18
2022-11-05T22:24:34.602Z,15.18
2022-11-05T22:27:03.002Z,15.17
2022-11-05T22:29:29.863Z,15.17
2022-11-05T22:31:57.352Z,15.19
2022-11-05T22:34:24.967Z,15.19
2022-11-05T22:36:52.393Z,15.18
2022-11-05T22:39:19.484Z,15.18
2022-11-05T22:41:46.735Z,15.20
2022-11-05T22:44:14.355Z,15.21
2022-11-05T22:46:42.040Z,15.21
2022-11-05T22:49:08.969Z,15.21
2022-11-05T22:51:37.975Z,15.23
2022-11-05T22:54:05.841Z,15.24
2022-11-05T22:56:36.545Z,15.24
2022-11-05T22:59:04.200Z,15.24
2022-11-05T23:01:31.471Z,15.25
2022-11-05T23:03:58.952Z,15.25
2022-11-05T23:06:49.434Z,15.26
2022-11-05T23:09:46.101Z,15.26
2022-11-05T23:12:30.857Z,15.25
2022-11-05T23:14:59.015Z,15.26
2022-11-05T23:17:45.291Z,15.26
2022-11-05T23:20:53.089Z,15.24
2022-11-05T23:23:38.216Z,15.25
2022-11-05T23:26:25.277Z,15.25
2022-11-05T23:28:52.145Z,15.25
2022-11-05T23:31:37.655Z,15.25
2022-11-05T23:34:04.726Z,15.26
2022-11-05T23:36:50.176Z,15.27
2022-11-05T23:39:17.139Z,15.29
2022-11-05T23:42:02.487Z,15.28
2022-11-05T23:44:48.038Z,15.27
2022-11-05T23:47:33.600Z,15.27
2022-11-05T23:50:00.461Z,15.28
2022-11-05T23:52:27.289Z,15.27
2022-11-05T23:54:54.251Z,15.29
2022-11-05T23:57:21.091Z,15.30
2022-11-05T23:59:47.883Z,15.30
